createdAt,value
2022-10-08T00:00:44.712Z,89.47
2022-10-08T00:01:44.730Z,89.78
2022-10-08T00:02:44.989Z,90.08
2022-10-08T00:03:44.722Z,89.17
2022-10-08T00:04:44.643Z,89.47
2022-10-08T00:05:44.641Z,89.98
2022-10-08T00:06:44.651Z,89.67
2022-10-08T00:07:44.621Z,89.98
2022-10-08T00:08:44.605Z,89.47
2022-10-08T00:09:44.603Z,89.98
2022-10-08T00:10:44.595Z,89.88
2022-10-08T00:11:44.592Z,90.66
2022-10-08T00:12:44.917Z,89.88
2022-10-08T00:13:44.552Z,89.78
2022-10-08T00:14:44.540Z,89.78
2022-10-08T00:15:44.532Z,90.66
2022-10-08T00:16:44.613Z,90.66
2022-10-08T00:17:44.541Z,90.66
2022-10-08T00:18:44.517Z,90.14
2022-10-08T00:19:44.488Z,90.86
2022-10-08T00:20:44.476Z,90.55
2022-10-08T00:21:44.467Z,90.55
2022-10-08T00:22:44.755Z,89.53
2022-10-08T00:23:44.488Z,90.04
2022-10-08T00:24:44.433Z,90.96
2022-10-08T00:25:44.416Z,90.86
2022-10-08T00:26:44.713Z,89.32
2022-10-08T00:27:44.409Z,88.71
2022-10-08T00:28:44.559Z,89.12
2022-10-08T00:29:44.429Z,89.84
2022-10-08T00:30:44.369Z,89.23
2022-10-08T00:31:44.464Z,89.32
2022-10-08T00:32:44.633Z,89.23
2022-10-08T00:33:44.345Z,90.14
2022-10-08T00:34:44.340Z,89.23
2022-10-08T00:35:44.334Z,89.43
2022-10-08T00:36:44.310Z,88.82
2022-10-08T00:37:44.307Z,88.82
2022-10-08T00:38:44.293Z,88.71
2022-10-08T00:39:44.300Z,89.23
2022-10-08T00:40:44.248Z,89.23
2022-10-08T00:41:44.257Z,89.23
2022-10-08T00:42:44.536Z,89.12
2022-10-08T00:43:44.242Z,88.92
2022-10-08T00:44:44.242Z,89.23
2022-10-08T00:45:44.252Z,90.45
2022-10-08T00:46:44.200Z,89.43
2022-10-08T00:47:44.182Z,88.82
2022-10-08T00:48:44.181Z,89.02
2022-10-08T00:49:44.172Z,88.82
2022-10-08T00:50:44.182Z,89.23
2022-10-08T00:51:44.167Z,88.82
2022-10-08T00:52:44.407Z,88.41
2022-10-08T00:53:44.124Z,88.20
2022-10-08T00:54:44.122Z,89.02
2022-10-08T00:55:44.279Z,89.23
2022-10-08T00:56:44.078Z,89.43
2022-10-08T00:57:44.087Z,88.41
2022-10-08T00:58:44.154Z,89.02
2022-10-08T00:59:44.067Z,89.43
2022-10-08T01:00:44.082Z,89.73
2022-10-08T01:01:44.163Z,88.71
2022-10-08T01:02:44.332Z,88.71
2022-10-08T01:03:44.031Z,89.02
2022-10-08T01:04:44.073Z,89.43
2022-10-08T01:05:43.995Z,90.45
2022-10-08T01:06:43.978Z,90.14
2022-10-08T01:07:43.968Z,89.32
2022-10-08T01:08:43.960Z,89.43
2022-10-08T01:09:43.967Z,89.84
2022-10-08T01:10:43.941Z,88.71
2022-10-08T01:11:43.937Z,89.32
2022-10-08T01:12:44.205Z,89.12
2022-10-08T01:13:43.913Z,88.92
2022-10-08T01:14:43.888Z,88.51
2022-10-08T01:15:43.893Z,88.51
2022-10-08T01:16:43.940Z,88.51
2022-10-08T01:17:43.876Z,88.61
2022-10-08T01:18:43.889Z,88.82
2022-10-08T01:19:43.873Z,88.61
2022-10-08T01:20:43.830Z,88.61
2022-10-08T01:21:43.869Z,89.63
2022-10-08T01:22:44.219Z,89.32
2022-10-08T01:23:43.801Z,89.02
2022-10-08T01:24:43.792Z,89.12
2022-10-08T01:25:43.770Z,89.32
2022-10-08T01:26:43.773Z,88.82
2022-10-08T01:27:43.756Z,89.43
2022-10-08T01:28:43.837Z,89.32
2022-10-08T01:29:43.734Z,88.71
2022-10-08T01:30:43.713Z,89.63
2022-10-08T01:31:43.790Z,90.14
2022-10-08T01:32:43.917Z,89.12
2022-10-08T01:33:43.684Z,89.12
2022-10-08T01:34:43.681Z,90.04
2022-10-08T01:35:43.653Z,89.94
2022-10-08T01:36:43.656Z,89.12
2022-10-08T01:37:43.671Z,88.92
2022-10-08T01:38:43.647Z,90.04
2022-10-08T01:39:43.614Z,90.35
2022-10-08T01:40:43.617Z,88.92
2022-10-08T01:41:43.604Z,88.82
2022-10-08T01:42:43.761Z,89.02
2022-10-08T01:43:43.618Z,88.31
2022-10-08T01:44:43.566Z,88.10
2022-10-08T01:45:43.603Z,89.02
2022-10-08T01:46:43.552Z,89.53
2022-10-08T01:47:43.537Z,89.84
2022-10-08T01:48:43.526Z,88.92
2022-10-08T01:49:43.562Z,88.61
2022-10-08T01:50:43.499Z,89.32
2022-10-08T01:51:43.488Z,90.51
2022-10-08T01:52:43.505Z,89.28
2022-10-08T01:53:43.488Z,89.18
2022-10-08T01:54:43.461Z,88.88
2022-10-08T01:55:43.461Z,88.47
2022-10-08T01:56:43.438Z,88.82
2022-10-08T01:57:43.430Z,88.41
2022-10-08T01:58:43.438Z,89.12
2022-10-08T01:59:43.399Z,89.53
2022-10-08T02:00:43.449Z,89.63
2022-10-08T02:01:43.391Z,89.53
2022-10-08T02:02:43.448Z,89.02
2022-10-08T02:03:43.403Z,88.61
2022-10-08T02:04:43.347Z,88.61
2022-10-08T02:05:43.353Z,89.02
2022-10-08T02:06:43.330Z,89.84
2022-10-08T02:07:43.373Z,89.84
2022-10-08T02:08:43.312Z,89.63
2022-10-08T02:09:43.302Z,89.43
2022-10-08T02:10:43.306Z,89.43
2022-10-08T02:11:43.273Z,88.92
2022-10-08T02:12:43.444Z,89.23
2022-10-08T02:13:43.275Z,88.71
2022-10-08T02:14:43.252Z,88.61
2022-10-08T02:15:43.256Z,89.63
2022-10-08T02:16:43.269Z,89.73
2022-10-08T02:17:43.278Z,88.61
2022-10-08T02:18:43.205Z,88.82
2022-10-08T02:19:43.195Z,89.23
2022-10-08T02:20:43.182Z,89.53
2022-10-08T02:21:43.169Z,88.51
2022-10-08T02:22:43.217Z,89.94
2022-10-08T02:23:43.158Z,89.53
2022-10-08T02:24:43.137Z,88.65
2022-10-08T02:25:43.154Z,89.37
2022-10-08T02:26:43.117Z,90.80
2022-10-08T02:27:43.138Z,89.78
2022-10-08T02:28:43.172Z,89.06
2022-10-08T02:29:43.080Z,89.26
2022-10-08T02:30:43.071Z,88.76
2022-10-08T02:31:43.116Z,89.26
2022-10-08T02:32:43.142Z,89.58
2022-10-08T02:33:43.066Z,89.26
2022-10-08T02:34:43.029Z,89.37
2022-10-08T02:35:43.016Z,89.37
2022-10-08T02:36:43.026Z,89.88
2022-10-08T02:37:43.008Z,90.49
2022-10-08T02:38:43.008Z,90.29
2022-10-08T02:39:42.979Z,90.19
2022-10-08T02:40:42.958Z,89.88
2022-10-08T02:41:42.962Z,89.88
2022-10-08T02:42:42.942Z,89.58
2022-10-08T02:43:42.942Z,89.06
2022-10-08T02:44:42.949Z,88.96
2022-10-08T02:45:42.946Z,89.26
2022-10-08T02:46:42.890Z,89.58
2022-10-08T02:47:42.888Z,89.88
2022-10-08T02:48:42.885Z,90.08
2022-10-08T02:49:42.870Z,90.19
2022-10-08T02:50:42.885Z,89.78
2022-10-08T02:51:42.840Z,89.26
2022-10-08T02:52:42.864Z,89.47
2022-10-08T02:53:42.821Z,89.47
2022-10-08T02:54:42.813Z,90.04
2022-10-08T02:55:42.833Z,89.12
2022-10-08T02:56:42.789Z,88.96
2022-10-08T02:57:42.796Z,89.17
2022-10-08T02:58:42.764Z,89.47
2022-10-08T02:59:42.761Z,89.58
2022-10-08T03:00:42.792Z,89.58
2022-10-08T03:01:43.762Z,90.25
2022-10-08T03:02:42.782Z,89.12
2022-10-08T03:03:42.726Z,89.32
2022-10-08T03:04:42.694Z,88.55
2022-10-08T03:05:42.716Z,89.06
2022-10-08T03:06:42.676Z,88.96
2022-10-08T03:07:42.686Z,89.47
2022-10-08T03:08:42.664Z,90.04
2022-10-08T03:09:42.655Z,90.66
2022-10-08T03:10:42.657Z,90.25
2022-10-08T03:11:42.626Z,88.82
2022-10-08T03:12:42.629Z,89.32
2022-10-08T03:13:42.607Z,89.63
2022-10-08T03:14:42.601Z,89.23
2022-10-08T03:15:42.592Z,88.35
2022-10-08T03:16:42.678Z,89.84
2022-10-08T03:17:42.579Z,90.66
2022-10-08T03:18:42.551Z,88.41
2022-10-08T03:19:42.551Z,88.85
2022-10-08T03:20:42.536Z,88.65
2022-10-08T03:21:42.531Z,89.06
2022-10-08T03:22:42.528Z,89.17
2022-10-08T03:23:42.501Z,88.96
2022-10-08T03:24:42.487Z,88.65
2022-10-08T03:25:42.489Z,88.96
2022-10-08T03:26:42.462Z,89.47
2022-10-08T03:27:42.490Z,88.85
2022-10-08T03:28:42.467Z,88.85
2022-10-08T03:29:42.431Z,88.96
2022-10-08T03:30:42.477Z,89.47
2022-10-08T03:31:42.413Z,89.06
2022-10-08T03:32:42.392Z,89.98
2022-10-08T03:33:42.412Z,89.47
2022-10-08T03:34:42.379Z,90.14
2022-10-08T03:35:42.362Z,88.92
2022-10-08T03:36:42.418Z,89.23
2022-10-08T03:37:42.365Z,88.92
2022-10-08T03:38:42.364Z,88.10
2022-10-08T03:39:42.333Z,87.94
2022-10-08T03:40:42.324Z,88.55
2022-10-08T03:41:42.302Z,89.17
2022-10-08T03:42:42.297Z,89.67
2022-10-08T03:43:42.315Z,89.12
2022-10-08T03:44:42.274Z,89.26
2022-10-08T03:45:42.308Z,88.92
2022-10-08T03:46:42.249Z,88.35
2022-10-08T03:47:42.246Z,88.65
2022-10-08T03:48:42.252Z,89.06
2022-10-08T03:49:42.227Z,89.06
2022-10-08T03:50:42.208Z,89.26
2022-10-08T03:51:42.197Z,88.65
2022-10-08T03:52:42.189Z,89.06
2022-10-08T03:53:42.196Z,88.96
2022-10-08T03:54:42.184Z,89.17
2022-10-08T03:55:42.146Z,89.53
2022-10-08T03:56:42.166Z,88.45
2022-10-08T03:57:42.137Z,88.76
2022-10-08T03:58:42.120Z,88.96
2022-10-08T03:59:42.143Z,89.78
2022-10-08T04:00:42.105Z,89.17
2022-10-08T04:01:42.181Z,89.47
2022-10-08T04:02:42.111Z,89.17
2022-10-08T04:03:42.080Z,88.76
2022-10-08T04:04:42.087Z,89.26
2022-10-08T04:05:42.060Z,88.55
2022-10-08T04:06:42.028Z,88.76
2022-10-08T04:07:42.031Z,89.17
2022-10-08T04:08:42.019Z,89.26
2022-10-08T04:09:42.030Z,89.37
2022-10-08T04:10:42.001Z,89.37
2022-10-08T04:11:41.980Z,89.47
2022-10-08T04:12:41.962Z,90.29
2022-10-08T04:13:41.964Z,90.08
2022-10-08T04:14:41.982Z,89.37
2022-10-08T04:15:41.980Z,88.85
2022-10-08T04:16:41.942Z,89.78
2022-10-08T04:17:41.913Z,89.58
2022-10-08T04:18:41.914Z,89.47
2022-10-08T04:19:41.883Z,88.59
2022-10-08T04:20:41.925Z,89.82
2022-10-08T04:21:41.890Z,90.23
2022-10-08T04:22:41.862Z,89.82
2022-10-08T04:23:41.857Z,90.19
2022-10-08T04:24:41.844Z,89.98
2022-10-08T04:25:41.836Z,90.49
2022-10-08T04:26:41.844Z,90.49
2022-10-08T04:27:41.816Z,90.49
2022-10-08T04:28:41.830Z,89.00
2022-10-08T04:29:41.787Z,88.79
2022-10-08T04:30:41.843Z,89.15
2022-10-08T04:31:41.755Z,90.17
2022-10-08T04:32:41.777Z,90.17
2022-10-08T04:33:41.735Z,90.06
2022-10-08T04:34:41.726Z,90.27
2022-10-08T04:35:41.726Z,89.86
2022-10-08T04:36:41.725Z,90.06
2022-10-08T04:37:41.717Z,90.06
2022-10-08T04:38:41.689Z,90.37
2022-10-08T04:39:41.676Z,90.47
2022-10-08T04:40:41.657Z,90.68
2022-10-08T04:41:41.657Z,90.43
2022-10-08T04:42:41.660Z,90.12
2022-10-08T04:43:41.657Z,90.43
2022-10-08T04:44:41.631Z,89.82
2022-10-08T04:45:41.606Z,89.76
2022-10-08T04:46:41.644Z,89.65
2022-10-08T04:47:41.588Z,90.06
2022-10-08T04:48:41.586Z,90.37
2022-10-08T04:49:41.591Z,89.97
2022-10-08T04:50:41.569Z,90.47
2022-10-08T04:51:41.571Z,90.78
2022-10-08T04:52:41.533Z,90.68
2022-10-08T04:53:41.522Z,90.17
2022-10-08T04:54:41.531Z,90.68
2022-10-08T04:55:41.501Z,90.06
2022-10-08T04:56:41.523Z,90.47
2022-10-08T04:57:41.480Z,90.27
2022-10-08T04:58:41.490Z,90.37
2022-10-08T04:59:59.375Z,90.27
2022-10-08T05:00:42.477Z,90.58
2022-10-08T05:01:41.469Z,90.68
2022-10-08T05:02:41.493Z,90.94
2022-10-08T05:03:41.423Z,90.23
2022-10-08T05:04:41.422Z,90.33
2022-10-08T05:05:41.406Z,90.84
2022-10-08T05:06:41.414Z,90.47
2022-10-08T05:07:41.383Z,90.06
2022-10-08T05:08:41.422Z,90.58
2022-10-08T05:09:41.354Z,91.29
2022-10-08T05:10:41.346Z,90.99
2022-10-08T05:11:41.359Z,90.99
2022-10-08T05:12:41.324Z,90.58
2022-10-08T05:13:41.325Z,90.47
2022-10-08T05:14:41.314Z,90.58
2022-10-08T05:15:41.338Z,90.68
2022-10-08T05:16:41.283Z,90.99
2022-10-08T05:17:41.288Z,90.88
2022-10-08T05:18:41.257Z,91.19
2022-10-08T05:19:41.237Z,91.35
2022-10-08T05:20:41.238Z,92.07
2022-10-08T05:21:41.246Z,91.35
2022-10-08T05:22:41.228Z,90.47
2022-10-08T05:23:41.197Z,90.58
2022-10-08T05:24:41.207Z,90.47
2022-10-08T05:25:41.176Z,90.78
2022-10-08T05:27:42.180Z,90.88
2022-10-08T05:28:41.219Z,91.09
2022-10-08T05:29:41.163Z,90.88
2022-10-08T05:30:41.121Z,90.78
2022-10-08T05:31:41.122Z,91.60
2022-10-08T05:32:41.118Z,90.78
2022-10-08T05:33:41.110Z,90.78
2022-10-08T05:34:41.111Z,90.88
2022-10-08T05:35:41.082Z,91.50
2022-10-08T05:36:41.071Z,92.01
2022-10-08T05:37:41.050Z,91.39
2022-10-08T05:38:41.061Z,91.39
2022-10-08T05:39:41.033Z,92.11
2022-10-08T05:40:41.042Z,92.01
2022-10-08T05:41:41.022Z,91.50
2022-10-08T05:42:41.003Z,91.60
2022-10-08T05:43:40.991Z,92.62
2022-10-08T05:44:45.271Z,92.11
2022-10-08T05:45:40.962Z,92.47
2022-10-08T05:46:41.131Z,91.96
2022-10-08T05:47:40.943Z,91.86
2022-10-08T05:48:40.945Z,90.78
2022-10-08T05:49:40.913Z,91.09
2022-10-08T05:50:40.919Z,91.19
2022-10-08T05:51:40.895Z,91.39
2022-10-08T05:52:40.933Z,90.99
2022-10-08T05:53:40.876Z,91.13
2022-10-08T05:54:40.884Z,91.54
2022-10-08T05:55:40.875Z,92.21
2022-10-08T05:56:40.851Z,91.74
2022-10-08T05:57:40.860Z,91.85
2022-10-08T05:58:40.838Z,92.05
2022-10-08T05:59:40.806Z,92.15
2022-10-08T06:00:40.827Z,91.85
2022-10-08T06:01:40.799Z,91.85
2022-10-08T06:02:40.835Z,91.64
2022-10-08T06:03:40.807Z,92.05
2022-10-08T06:04:40.812Z,92.25
2022-10-08T06:05:40.758Z,92.36
2022-10-08T06:06:40.748Z,92.46
2022-10-08T06:07:40.730Z,93.33
2022-10-08T06:08:40.718Z,92.36
2022-10-08T06:09:40.740Z,92.25
2022-10-08T06:10:40.691Z,92.77
2022-10-08T06:11:40.710Z,92.83
2022-10-08T06:12:40.679Z,92.83
2022-10-08T06:13:40.677Z,92.21
2022-10-08T06:14:40.685Z,92.83
2022-10-08T06:15:40.646Z,92.83
2022-10-08T06:16:40.727Z,92.62
2022-10-08T06:17:40.622Z,91.91
2022-10-08T06:18:40.624Z,91.91
2022-10-08T06:19:40.605Z,92.42
2022-10-08T06:20:40.601Z,92.62
2022-10-08T06:21:40.587Z,92.01
2022-10-08T06:22:40.562Z,92.25
2022-10-08T06:23:40.552Z,92.56
2022-10-08T06:24:40.553Z,92.46
2022-10-08T06:25:40.561Z,92.36
2022-10-08T06:26:40.523Z,92.66
2022-10-08T06:27:40.512Z,93.03
2022-10-08T06:28:40.575Z,92.72
2022-10-08T06:29:40.491Z,92.72
2022-10-08T06:30:40.502Z,93.33
2022-10-08T06:31:40.530Z,92.62
2022-10-08T06:32:40.487Z,92.36
2022-10-08T06:33:40.463Z,92.36
2022-10-08T06:34:40.434Z,92.77
2022-10-08T06:35:40.454Z,93.18
2022-10-08T06:36:40.429Z,93.07
2022-10-08T06:37:40.406Z,92.87
2022-10-08T06:38:40.415Z,92.97
2022-10-08T06:39:42.884Z,92.97
2022-10-08T06:40:41.382Z,92.83
2022-10-08T06:41:40.382Z,92.72
2022-10-08T06:42:40.356Z,92.72
2022-10-08T06:43:41.170Z,92.93
2022-10-08T06:44:40.333Z,92.72
2022-10-08T06:45:40.437Z,92.72
2022-10-08T06:46:40.401Z,92.93
2022-10-08T06:47:40.366Z,92.52
2022-10-08T06:48:40.286Z,92.62
2022-10-08T06:49:40.256Z,92.72
2022-10-08T06:50:40.259Z,92.72
2022-10-08T06:51:40.245Z,92.42
2022-10-08T06:52:40.248Z,92.72
2022-10-08T06:53:40.226Z,92.42
2022-10-08T06:54:40.214Z,92.83
2022-10-08T06:55:40.210Z,92.62
2022-10-08T06:56:40.201Z,92.62
2022-10-08T06:57:40.209Z,92.62
2022-10-08T06:58:40.200Z,92.72
2022-10-08T06:59:40.189Z,93.54
2022-10-08T07:00:40.178Z,93.03
2022-10-08T07:01:40.217Z,92.72
2022-10-08T07:02:40.141Z,92.42
2022-10-08T07:03:40.131Z,92.42
2022-10-08T07:04:40.141Z,92.52
2022-10-08T07:05:40.100Z,92.72
2022-10-08T07:06:40.094Z,92.93
2022-10-08T07:07:40.081Z,92.93
2022-10-08T07:08:40.072Z,92.83
2022-10-08T07:09:40.072Z,92.83
2022-10-08T07:10:40.066Z,93.03
2022-10-08T07:11:40.057Z,92.93
2022-10-08T07:12:40.021Z,92.93
2022-10-08T07:13:40.038Z,93.03
2022-10-08T07:14:40.021Z,93.09
2022-10-08T07:15:39.999Z,93.19
2022-10-08T07:16:40.559Z,93.29
2022-10-08T07:17:39.963Z,93.29
2022-10-08T07:18:40.024Z,93.29
2022-10-08T07:19:40.074Z,92.78
2022-10-08T07:20:40.040Z,92.58
2022-10-08T07:21:41.235Z,92.68
2022-10-08T07:22:39.994Z,92.58
2022-10-08T07:23:40.007Z,92.68
2022-10-08T07:24:40.036Z,92.47
2022-10-08T07:25:39.948Z,93.09
2022-10-08T07:26:40.398Z,93.91
2022-10-08T07:27:44.737Z,92.78
2022-10-08T07:28:39.893Z,92.68
2022-10-08T07:29:39.908Z,92.78
2022-10-08T07:30:39.846Z,93.50
2022-10-08T07:31:39.943Z,93.09
2022-10-08T07:32:39.807Z,92.88
2022-10-08T07:33:39.806Z,92.78
2022-10-08T07:34:39.791Z,92.68
2022-10-08T07:35:39.790Z,92.68
2022-10-08T07:36:39.801Z,92.88
2022-10-08T07:37:39.778Z,93.25
2022-10-08T07:38:39.763Z,93.25
2022-10-08T07:39:39.746Z,93.45
2022-10-08T07:40:39.729Z,93.25
2022-10-08T07:41:39.759Z,93.05
2022-10-08T07:42:39.737Z,92.74
2022-10-08T07:43:39.698Z,92.74
2022-10-08T07:44:39.678Z,92.64
2022-10-08T07:45:39.737Z,92.84
2022-10-08T07:46:39.691Z,92.74
2022-10-08T07:47:39.699Z,92.84
2022-10-08T07:48:39.642Z,92.84
2022-10-08T07:49:39.633Z,92.74
2022-10-08T07:50:39.618Z,92.74
2022-10-08T07:51:39.621Z,93.05
2022-10-08T07:52:39.591Z,93.15
2022-10-08T07:53:39.621Z,92.84
2022-10-08T07:54:39.572Z,92.94
2022-10-08T07:55:39.564Z,92.84
2022-10-08T07:56:39.565Z,92.84
2022-10-08T07:57:39.536Z,92.64
2022-10-08T07:58:39.533Z,92.74
2022-10-08T07:59:39.531Z,92.84
2022-10-08T08:00:39.552Z,93.05
2022-10-08T08:01:39.494Z,93.05
2022-10-08T08:02:39.527Z,92.84
2022-10-08T08:03:39.494Z,92.80
2022-10-08T08:04:39.477Z,92.49
2022-10-08T08:05:39.475Z,92.90
2022-10-08T08:06:39.464Z,92.69
2022-10-08T08:07:39.444Z,92.80
2022-10-08T08:08:39.455Z,92.80
2022-10-08T08:09:39.414Z,92.69
2022-10-08T08:10:39.397Z,92.69
2022-10-08T08:11:39.386Z,92.49
2022-10-08T08:12:39.377Z,92.49
2022-10-08T08:13:39.384Z,92.19
2022-10-08T08:14:39.400Z,91.98
2022-10-08T08:15:39.345Z,92.59
2022-10-08T08:16:39.443Z,92.59
2022-10-08T08:17:39.306Z,92.69
2022-10-08T08:18:39.330Z,92.55
2022-10-08T08:19:39.327Z,92.55
2022-10-08T08:20:39.309Z,92.65
2022-10-08T08:21:39.282Z,92.35
2022-10-08T08:22:39.268Z,92.45
2022-10-08T08:23:39.260Z,92.14
2022-10-08T08:24:39.280Z,91.83
2022-10-08T08:25:39.251Z,92.24
2022-10-08T08:26:39.229Z,92.00
2022-10-08T08:27:39.209Z,91.89
2022-10-08T08:28:39.288Z,91.39
2022-10-08T08:29:39.251Z,91.59
2022-10-08T08:30:39.189Z,91.69
2022-10-08T08:31:39.217Z,91.79
2022-10-08T08:32:39.161Z,91.89
2022-10-08T08:33:39.153Z,92.20
2022-10-08T08:34:39.151Z,91.55
2022-10-08T08:35:39.162Z,91.35
2022-10-08T08:36:39.133Z,91.44
2022-10-08T08:37:39.106Z,91.65
2022-10-08T08:38:39.117Z,91.55
2022-10-08T08:39:39.103Z,91.35
2022-10-08T08:40:39.075Z,91.55
2022-10-08T08:41:39.075Z,91.65
2022-10-08T08:42:39.083Z,91.35
2022-10-08T08:43:39.067Z,91.44
2022-10-08T08:44:39.047Z,91.35
2022-10-08T08:45:46.843Z,91.14
2022-10-08T08:46:40.061Z,91.35
2022-10-08T08:47:38.994Z,91.55
2022-10-08T08:48:39.018Z,91.24
2022-10-08T08:49:38.979Z,91.50
2022-10-08T08:50:38.966Z,91.71
2022-10-08T08:51:38.955Z,91.20
2022-10-08T08:52:38.976Z,91.30
2022-10-08T08:53:38.927Z,90.79
2022-10-08T08:54:38.929Z,90.79
2022-10-08T08:55:38.904Z,91.09
2022-10-08T08:56:38.917Z,90.75
2022-10-08T08:57:38.908Z,90.75
2022-10-08T08:58:38.892Z,90.75
2022-10-08T08:59:38.862Z,91.01
2022-10-08T09:00:38.857Z,90.81
2022-10-08T09:01:38.918Z,90.60
2022-10-08T09:02:38.843Z,90.20
2022-10-08T09:03:38.838Z,90.09
2022-10-08T09:04:44.316Z,90.09
2022-10-08T09:05:39.876Z,89.95
2022-10-08T09:06:38.789Z,90.16
2022-10-08T09:07:38.792Z,90.36
2022-10-08T09:08:38.783Z,90.56
2022-10-08T09:09:38.782Z,90.16
2022-10-08T09:10:38.749Z,90.25
2022-10-08T09:11:38.742Z,89.85
2022-10-08T09:12:38.750Z,89.85
2022-10-08T09:13:38.723Z,90.05
2022-10-08T09:14:38.702Z,89.81
2022-10-08T09:15:38.721Z,90.05
2022-10-08T09:16:38.736Z,89.64
2022-10-08T09:17:38.670Z,90.05
2022-10-08T09:18:38.681Z,89.75
2022-10-08T09:19:38.675Z,89.40
2022-10-08T09:20:40.379Z,89.30
2022-10-08T09:21:38.639Z,89.30
2022-10-08T09:22:38.652Z,89.70
2022-10-08T09:23:38.641Z,89.91
2022-10-08T09:24:38.642Z,89.50
2022-10-08T09:25:38.714Z,89.30
2022-10-08T09:26:38.594Z,89.40
2022-10-08T09:27:38.584Z,89.09
2022-10-08T09:28:38.684Z,89.50
2022-10-08T09:29:38.542Z,89.00
2022-10-08T09:30:38.666Z,89.09
2022-10-08T09:31:38.524Z,89.00
2022-10-08T09:32:38.525Z,88.79
2022-10-08T09:33:38.536Z,88.89
2022-10-08T09:34:38.485Z,88.89
2022-10-08T09:35:38.497Z,89.20
2022-10-08T09:36:38.467Z,88.79
2022-10-08T09:37:38.513Z,89.00
2022-10-08T09:38:38.491Z,88.85
2022-10-08T09:39:38.475Z,88.85
2022-10-08T09:40:38.442Z,88.75
2022-10-08T09:41:38.447Z,89.05
2022-10-08T09:42:38.409Z,88.34
2022-10-08T09:43:38.417Z,88.54
2022-10-08T09:44:38.439Z,88.75
2022-10-08T09:45:38.401Z,88.85
2022-10-08T09:46:38.379Z,88.85
2022-10-08T09:47:38.389Z,88.30
2022-10-08T09:48:38.364Z,88.40
2022-10-08T09:49:38.365Z,88.20
2022-10-08T09:50:38.319Z,87.85
2022-10-08T09:51:38.313Z,87.55
2022-10-08T09:52:38.299Z,87.65
2022-10-08T09:53:38.306Z,87.81
2022-10-08T09:54:38.283Z,87.51
2022-10-08T09:55:38.253Z,87.30
2022-10-08T09:56:38.263Z,87.00
2022-10-08T09:57:42.970Z,87.71
2022-10-08T09:58:39.240Z,86.80
2022-10-08T09:59:38.217Z,86.45
2022-10-08T10:00:38.221Z,86.19
2022-10-08T10:01:38.274Z,86.35
2022-10-08T10:02:38.181Z,86.59
2022-10-08T10:03:38.211Z,86.65
2022-10-08T10:04:38.189Z,86.96
2022-10-08T10:05:38.153Z,86.15
2022-10-08T10:06:38.170Z,85.94
2022-10-08T10:07:38.122Z,85.94
2022-10-08T10:08:38.135Z,86.45
2022-10-08T10:09:38.118Z,86.19
2022-10-08T10:10:38.117Z,86.29
2022-10-08T10:11:38.103Z,86.59
2022-10-08T10:12:38.078Z,87.06
2022-10-08T10:13:38.067Z,87.06
2022-10-08T10:14:38.054Z,86.05
2022-10-08T10:15:38.056Z,86.45
2022-10-08T10:16:38.124Z,86.55
2022-10-08T10:17:38.067Z,86.86
2022-10-08T10:18:38.009Z,86.45
2022-10-08T10:19:38.009Z,86.65
2022-10-08T10:20:37.996Z,86.82
2022-10-08T10:21:38.031Z,87.02
2022-10-08T10:22:37.977Z,85.90
2022-10-08T10:23:37.968Z,85.86
2022-10-08T10:24:37.990Z,86.27
2022-10-08T10:25:37.943Z,84.64
2022-10-08T10:26:37.942Z,84.64
2022-10-08T10:27:37.943Z,84.95
2022-10-08T10:28:38.000Z,84.95
2022-10-08T10:29:37.929Z,84.64
2022-10-08T10:30:37.980Z,85.11
2022-10-08T10:31:37.888Z,84.50
2022-10-08T10:32:37.881Z,85.62
2022-10-08T10:33:37.876Z,83.90
2022-10-08T10:34:37.861Z,83.29
2022-10-08T10:35:37.830Z,83.29
2022-10-08T10:36:37.853Z,83.59
2022-10-08T10:37:37.819Z,84.41
2022-10-08T10:38:42.799Z,84.41
2022-10-08T10:39:38.811Z,84.00
2022-10-08T10:40:37.780Z,84.10
2022-10-08T10:41:37.802Z,84.50
2022-10-08T10:42:37.769Z,84.10
2022-10-08T10:43:37.774Z,84.47
2022-10-08T10:44:37.744Z,83.69
2022-10-08T10:45:37.722Z,83.69
2022-10-08T10:46:37.841Z,83.09
2022-10-08T10:47:37.708Z,83.18
2022-10-08T10:48:37.714Z,83.09
2022-10-08T10:49:37.673Z,83.29
2022-10-08T10:50:37.676Z,83.59
2022-10-08T10:51:37.653Z,84.00
2022-10-08T10:52:37.683Z,84.10
2022-10-08T10:53:37.645Z,84.41
2022-10-08T10:54:37.632Z,84.34
2022-10-08T10:55:37.615Z,84.34
2022-10-08T10:56:37.629Z,84.04
2022-10-08T10:57:37.614Z,84.41
2022-10-08T10:58:37.609Z,84.30
2022-10-08T10:59:37.564Z,85.31
2022-10-08T11:00:37.564Z,84.50
2022-10-08T11:01:37.577Z,84.10
2022-10-08T11:02:37.596Z,83.90
2022-10-08T11:03:37.528Z,83.80
2022-10-08T11:04:37.536Z,83.69
2022-10-08T11:05:37.507Z,83.90
2022-10-08T11:06:37.517Z,83.69
2022-10-08T11:07:37.487Z,83.59
2022-10-08T11:08:37.495Z,84.10
2022-10-08T11:09:37.471Z,84.50
2022-10-08T11:10:37.468Z,84.70
2022-10-08T11:11:37.448Z,84.30
2022-10-08T11:12:37.460Z,84.50
2022-10-08T11:13:37.428Z,84.55
2022-10-08T11:14:37.417Z,84.75
2022-10-08T11:15:37.462Z,85.36
2022-10-08T11:16:37.390Z,86.16
2022-10-08T11:17:37.402Z,85.36
2022-10-08T11:18:37.377Z,85.36
2022-10-08T11:19:37.372Z,85.46
2022-10-08T11:20:37.353Z,85.86
2022-10-08T11:21:37.345Z,85.96
2022-10-08T11:22:37.372Z,86.07
2022-10-08T11:23:37.325Z,85.86
2022-10-08T11:24:37.316Z,85.96
2022-10-08T11:26:02.103Z,86.16
2022-10-08T11:26:38.311Z,85.56
2022-10-08T11:27:37.282Z,85.66
2022-10-08T11:28:37.335Z,85.86
2022-10-08T11:29:37.282Z,85.86
2022-10-08T11:30:37.284Z,85.86
2022-10-08T11:31:37.235Z,85.86
2022-10-08T11:32:37.243Z,84.95
2022-10-08T11:33:37.235Z,84.44
2022-10-08T11:34:37.204Z,84.55
2022-10-08T11:35:37.185Z,84.04
2022-10-08T11:36:37.187Z,84.04
2022-10-08T11:37:37.175Z,84.14
2022-10-08T11:38:37.208Z,84.24
2022-10-08T11:39:37.262Z,84.34
2022-10-08T11:40:37.141Z,84.34
2022-10-08T11:41:37.138Z,83.94
2022-10-08T11:42:40.741Z,84.24
2022-10-08T11:43:38.207Z,84.44
2022-10-08T11:44:37.135Z,84.38
2022-10-08T11:45:37.094Z,84.48
2022-10-08T11:46:37.115Z,84.78
2022-10-08T11:47:37.083Z,83.98
2022-10-08T11:48:37.058Z,84.38
2022-10-08T11:49:37.054Z,84.28
2022-10-08T11:50:37.047Z,84.69
2022-10-08T11:51:37.030Z,84.89
2022-10-08T11:52:37.017Z,84.48
2022-10-08T11:53:37.035Z,84.58
2022-10-08T11:54:36.989Z,84.89
2022-10-08T11:55:36.989Z,85.09
2022-10-08T11:56:36.976Z,84.78
2022-10-08T11:58:06.762Z,84.99
2022-10-08T11:58:37.949Z,85.19
2022-10-08T11:59:36.931Z,85.09
2022-10-08T12:00:36.932Z,85.30
2022-10-08T12:01:36.962Z,85.60
2022-10-08T12:02:37.028Z,85.60
2022-10-08T12:03:37.021Z,85.70
2022-10-08T12:04:36.909Z,85.80
2022-10-08T12:05:36.924Z,86.35
2022-10-08T12:06:36.863Z,86.35
2022-10-08T12:07:36.904Z,86.45
2022-10-08T12:08:36.921Z,86.76
2022-10-08T12:09:36.845Z,86.45
2022-10-08T12:10:36.832Z,86.86
2022-10-08T12:11:36.836Z,86.45
2022-10-08T12:12:36.806Z,87.16
2022-10-08T12:13:36.795Z,85.64
2022-10-08T12:14:36.796Z,84.83
2022-10-08T12:15:36.957Z,84.83
2022-10-08T12:16:36.766Z,84.36
2022-10-08T12:17:36.779Z,84.97
2022-10-08T12:18:36.746Z,84.36
2022-10-08T12:19:36.734Z,87.00
2022-10-08T12:20:36.722Z,87.51
2022-10-08T12:21:36.706Z,88.21
2022-10-08T12:22:36.686Z,88.56
2022-10-08T12:23:36.705Z,88.16
2022-10-08T12:24:36.666Z,88.46
2022-10-08T12:25:36.669Z,87.59
2022-10-08T12:26:36.647Z,86.98
2022-10-08T12:27:36.650Z,87.69
2022-10-08T12:28:36.718Z,88.20
2022-10-08T12:29:36.617Z,87.49
2022-10-08T12:30:36.612Z,87.73
2022-10-08T12:31:36.689Z,85.60
2022-10-08T12:32:36.606Z,87.43
2022-10-08T12:33:36.568Z,86.82
2022-10-08T12:34:36.597Z,86.92
2022-10-08T12:35:36.559Z,87.23
2022-10-08T12:36:36.551Z,88.34
2022-10-08T12:37:36.534Z,88.24
2022-10-08T12:38:36.521Z,85.60
2022-10-08T12:39:36.511Z,86.21
2022-10-08T12:40:36.520Z,87.99
2022-10-08T12:41:36.499Z,87.18
2022-10-08T12:42:36.487Z,85.46
2022-10-08T12:43:36.475Z,86.16
2022-10-08T12:44:36.465Z,84.84
2022-10-08T12:45:36.471Z,86.16
2022-10-08T12:46:36.521Z,85.52
2022-10-08T12:47:36.422Z,86.22
2022-10-08T12:48:36.418Z,84.91
2022-10-08T12:49:36.402Z,84.36
2022-10-08T12:50:36.435Z,84.05
2022-10-08T12:51:36.372Z,83.95
2022-10-08T12:52:36.393Z,83.24
2022-10-08T12:53:36.366Z,83.65